Terminal Aerodrome Forecast
Issued by NWS Melbourne, FL

Home | Current Version | Previous Version | Text Only | Print | Product List | Glossary On
Versions: 1 2 3 4 5 6 7 8 9 10 11 12 13 14 15 16 17 18 19 20 21 22 23 24 25 26 27 28
000
FTUS42 KMLB 311504 AAA
TAFMCO
TAF AMD
KMCO 311504Z 3115/0112 22009KT P6SM SCT025 BKN250
     FM311700 23012KT P6SM VCTS SCT040CB BKN120 BKN250
      TEMPO 3117/3119 3SM TSRA BKN035CB
     FM010000 21006KT P6SM VCSH FEW025 BKN150 BKN250=

USA.gov is the U.S. government's official web portal to all federal, state and local government web resources and services.